Tango III — 3ESA9 — position and weather

sailwx.info

Track history (hours):
 
Tides and Currents Weather Stations Pressure Air Temp Water Temp Dewpoint Dewpoint Depression Visibility Wind Speed Wind Dir Waves Ship Positions

Tango III

Last reported at 2018-Jun-24 04:27 UTC. Time now 2018-Jun-25 00:14 UTC.
Position N 25°29' W 079°54'.

Length 100 m.

Type: Cargo ship. MMSI: 355983000.

Date/timePositionNaut miles runAvg speedWind from/ knotsBaromVisibWave heightAir tempDewpointWater temp
2018-Jun-24 04:27N 25°29' W 079°54'4 8.0
2018-Jun-24 03:59N 25°32' W 079°56'4 8.4
2018-Jun-24 03:30N 25°36' W 079°58'4 8.7
2018-Jun-24 03:00N 25°40' W 080°00'4 8.5
2018-Jun-24 02:30N 25°43' W 080°03'4 8.1
2018-Jun-24 02:00N 25°46' W 080°06'4 8.1
2018-Jun-24 01:30N 25°46' W 080°11'1 2.4
2018-Jun-24 01:00N 25°46' W 080°12'1 2.7
2018-Jun-24 00:28N 25°47' W 080°13'1 2.4
2018-Jun-23 23:58N 25°48' W 080°15'0 0.5
2018-Jun-23 23:28N 25°48' W 080°15'0 0.0
2018-Jun-23 22:55N 25°48' W 080°15'0 0.0
2018-Jun-23 22:28N 25°48' W 080°15'0 0.0
2018-Jun-23 21:58N 25°48' W 080°15'0 0.0
2018-Jun-23 21:28N 25°48' W 080°15'0 0.0
2018-Jun-23 20:55N 25°48' W 080°15'0 0.0
2018-Jun-23 20:28N 25°48' W 080°15'0 0.0
2018-Jun-23 19:58N 25°48' W 080°15'0 0.0
2018-Jun-23 19:22N 25°48' W 080°15'0 0.0
2018-Jun-23 18:46N 25°48' W 080°15'0 0.0
2018-Jun-23 18:25N 25°48' W 080°15'0 0.0
2018-Jun-23 17:55N 25°48' W 080°15'0 0.0
2018-Jun-23 17:25N 25°48' W 080°15'0 0.0
2018-Jun-23 16:58N 25°48' W 080°15'0 0.0
2018-Jun-23 16:28N 25°48' W 080°15'0 0.0
2018-Jun-23 15:58N 25°48' W 080°15'0 0.0
2018-Jun-23 15:25N 25°48' W 080°15'0 0.0
2018-Jun-23 14:55N 25°48' W 080°15'0 0.0
2018-Jun-23 14:28N 25°48' W 080°15'0 0.0
2018-Jun-23 13:55N 25°48' W 080°15'0 0.0
2018-Jun-23 13:25N 25°48' W 080°15'0 0.0
2018-Jun-23 12:58N 25°48' W 080°15'0 0.0
2018-Jun-23 12:28N 25°48' W 080°15'0 0.0
2018-Jun-23 11:58N 25°48' W 080°15'0 0.0
2018-Jun-23 11:25N 25°48' W 080°15'0 0.0
2018-Jun-23 10:55N 25°48' W 080°15'0 0.0
2018-Jun-23 10:25N 25°48' W 080°15'0 0.0
2018-Jun-23 09:55N 25°48' W 080°15'0 0.0
2018-Jun-23 09:25N 25°48' W 080°15'0 0.0
2018-Jun-23 08:55N 25°48' W 080°15'0 0.0
2018-Jun-23 08:31N 25°48' W 080°15'0 0.0
2018-Jun-23 07:58N 25°48' W 080°15'0 0.0
2018-Jun-23 07:30N 25°48' W 080°15'0 0.0
2018-Jun-23 06:57N 25°48' W 080°15'0 0.0
2018-Jun-23 06:27N 25°48' W 080°15'0 0.0
2018-Jun-23 06:00N 25°48' W 080°15'0 0.0
2018-Jun-23 05:30N 25°48' W 080°15'0 0.0
2018-Jun-23 05:00N 25°48' W 080°15'0 0.0
2018-Jun-23 04:30N 25°48' W 080°15'0 0.0
2018-Jun-23 04:00N 25°48' W 080°15'0 0.0
2018-Jun-23 03:30N 25°48' W 080°15'0 0.0
2018-Jun-23 03:00N 25°48' W 080°15'0 0.0
2018-Jun-23 02:30N 25°48' W 080°15'0 0.0
2018-Jun-23 02:00N 25°48' W 080°15'0 0.0
2018-Jun-23 01:30N 25°48' W 080°15'0 0.1
2018-Jun-23 01:00N 25°48' W 080°15'0 0.0
2018-Jun-23 00:30N 25°48' W 080°15'0 0.0
2018-Jun-23 00:00N 25°48' W 080°15'0 0.0
2018-Jun-22 23:30N 25°48' W 080°15'0 0.0
2018-Jun-22 23:00N 25°48' W 080°15'0 0.0
2018-Jun-22 22:30N 25°48' W 080°15'0 0.0
2018-Jun-22 22:00N 25°48' W 080°15'0 0.0
2018-Jun-22 21:30N 25°48' W 080°15'0 0.0
2018-Jun-22 21:00N 25°48' W 080°15'0 0.0
2018-Jun-22 20:30N 25°48' W 080°15'0 0.0
2018-Jun-22 20:00N 25°48' W 080°15'0 0.0
2018-Jun-22 19:30N 25°48' W 080°15'1 1.2
2018-Jun-22 19:00N 25°47' W 080°14'1 2.6
2018-Jun-22 18:30N 25°47' W 080°13'1 2.8
2018-Jun-22 18:01N 25°46' W 080°12'1 2.6
2018-Jun-22 17:30N 25°46' W 080°10'4 8.7
2018-Jun-22 17:00N 25°46' W 080°06'1 1.8
2018-Jun-22 16:25N 25°47' W 080°05'0 0.1
2018-Jun-22 15:58N 25°47' W 080°05'0 0.2
2018-Jun-22 15:28N 25°47' W 080°05'0 0.1
2018-Jun-22 14:58N 25°47' W 080°05'0 0.1
2018-Jun-22 14:28N 25°47' W 080°05'1 2.4
2018-Jun-22 14:00N 25°47' W 080°04'612.5
2018-Jun-22 13:30N 25°41' W 080°02'714.3
2018-Jun-22 13:00N 25°34' W 079°59'714.3
2018-Jun-22 12:30N 25°28' W 079°56'  
2018-Jun-15 21:53N 25°27' W 079°55'3 7.6
2018-Jun-15 21:31N 25°30' W 079°56'4 7.6
2018-Jun-15 20:59N 25°33' W 079°58'4 7.9
2018-Jun-15 20:30N 25°36' W 080°00'4 8.1
2018-Jun-15 20:00N 25°40' W 080°02'4 8.5
2018-Jun-15 19:30N 25°44' W 080°04'5 9.0
2018-Jun-15 19:00N 25°46' W 080°09'2 4.8
2018-Jun-15 18:30N 25°46' W 080°11'1 2.7
2018-Jun-15 18:00N 25°47' W 080°13'1 2.9
2018-Jun-15 17:30N 25°47' W 080°14'1 1.4
2018-Jun-15 17:00N 25°48' W 080°15'0 0.1
2018-Jun-15 16:30N 25°48' W 080°15'0 0.0
2018-Jun-15 16:00N 25°48' W 080°15'0 0.0
2018-Jun-15 15:30N 25°48' W 080°15'0 0.0
2018-Jun-15 14:54N 25°48' W 080°15'0 0.0
2018-Jun-15 14:30N 25°48' W 080°15'0 0.0
2018-Jun-15 14:00N 25°48' W 080°15'0 0.0
2018-Jun-15 13:30N 25°48' W 080°15'0 0.0
2018-Jun-15 13:00N 25°48' W 080°15'0 0.0
2018-Jun-15 12:30N 25°48' W 080°15'0 0.1
2018-Jun-15 12:00N 25°48' W 080°15'0 0.0
2018-Jun-15 11:30N 25°48' W 080°15'0 0.0
2018-Jun-15 11:00N 25°48' W 080°15'0 0.0
2018-Jun-15 10:30N 25°48' W 080°15'0 0.0
2018-Jun-15 10:00N 25°48' W 080°15'0 0.0
2018-Jun-15 09:30N 25°48' W 080°15'0 0.0
2018-Jun-15 09:00N 25°48' W 080°15'0 0.0
2018-Jun-15 08:21N 25°48' W 080°15'0 0.0
2018-Jun-15 07:53N 25°48' W 080°15'0 0.0
2018-Jun-15 07:29N 25°48' W 080°15'0 0.0
2018-Jun-15 06:59N 25°48' W 080°15'0 0.0
2018-Jun-15 06:23N 25°48' W 080°15'0 0.0
2018-Jun-15 05:59N 25°48' W 080°15'0 0.0
2018-Jun-15 05:29N 25°48' W 080°15'0 0.0
2018-Jun-15 04:59N 25°48' W 080°15'0 0.0
2018-Jun-15 04:29N 25°48' W 080°15'0 0.0
2018-Jun-15 03:59N 25°48' W 080°15'0 0.0
2018-Jun-15 03:23N 25°48' W 080°15'0 0.0
2018-Jun-15 02:59N 25°48' W 080°15'0 0.0
2018-Jun-15 02:29N 25°48' W 080°15'0 0.0
2018-Jun-15 01:59N 25°48' W 080°15'0 0.0
2018-Jun-15 01:23N 25°48' W 080°15'0 0.0
2018-Jun-15 00:56N 25°48' W 080°15'0 0.0
2018-Jun-15 00:29N 25°48' W 080°15'0 0.0
2018-Jun-14 23:59N 25°48' W 080°15'0 0.0
2018-Jun-14 23:26N 25°48' W 080°15'0 0.0
2018-Jun-14 22:59N 25°48' W 080°15'0 0.0
2018-Jun-14 22:26N 25°48' W 080°15'0 0.0
2018-Jun-14 21:56N 25°48' W 080°15'0 0.0
2018-Jun-14 21:29N 25°48' W 080°15'0 0.0
2018-Jun-14 20:59N 25°48' W 080°15'0 0.0
2018-Jun-14 20:26N 25°48' W 080°15'0 0.0
2018-Jun-14 19:59N 25°48' W 080°15'0 0.0
2018-Jun-14 19:29N 25°48' W 080°15'0 0.0
2018-Jun-14 18:59N 25°48' W 080°15'0 0.0
2018-Jun-14 18:26N 25°48' W 080°15'0 0.0
2018-Jun-14 17:59N 25°48' W 080°15'0 0.0
2018-Jun-14 17:29N 25°48' W 080°15'0 0.0
2018-Jun-14 16:59N 25°48' W 080°15'0 0.0
2018-Jun-14 16:29N 25°48' W 080°15'0 0.0
2018-Jun-14 15:59N 25°48' W 080°15'0 0.0
2018-Jun-14 15:29N 25°48' W 080°15'1 1.4
2018-Jun-14 15:00N 25°47' W 080°14'1 2.3
2018-Jun-14 14:30N 25°47' W 080°13'1 2.4
2018-Jun-14 13:59N 25°46' W 080°12'1 2.4
2018-Jun-14 13:30N 25°46' W 080°11'3 6.7
2018-Jun-14 13:00N 25°45' W 080°07'4 8.8
2018-Jun-14 12:30N 25°43' W 080°03'713.7
2018-Jun-14 12:00N 25°36' W 080°02'713.7
2018-Jun-14 11:29N 25°29' W 079°59'  
Track history (hours):
 
Tides and Currents Weather Stations Pressure Air Temp Water Temp Dewpoint Dewpoint Depression Visibility Wind Speed Wind Dir Waves Ship Positions

Tango III

Last reported at 2018-Jun-24 04:27 UTC. Time now 2018-Jun-25 00:14 UTC.
Position N 25°29' W 079°54'.

Length 100 m.

Type: Cargo ship. MMSI: 355983000.

Date/timePositionNaut miles runAvg speedWind from/ knotsBaromVisibWave heightAir tempDewpointWater temp
2018-Jun-24 04:27N 25°29' W 079°54'4 8.0
2018-Jun-24 03:59N 25°32' W 079°56'4 8.4
2018-Jun-24 03:30N 25°36' W 079°58'4 8.7
2018-Jun-24 03:00N 25°40' W 080°00'4 8.5
2018-Jun-24 02:30N 25°43' W 080°03'4 8.1
2018-Jun-24 02:00N 25°46' W 080°06'4 8.1
2018-Jun-24 01:30N 25°46' W 080°11'1 2.4
2018-Jun-24 01:00N 25°46' W 080°12'1 2.7
2018-Jun-24 00:28N 25°47' W 080°13'1 2.4
2018-Jun-23 23:58N 25°48' W 080°15'0 0.5
2018-Jun-23 23:28N 25°48' W 080°15'0 0.0
2018-Jun-23 22:55N 25°48' W 080°15'0 0.0
2018-Jun-23 22:28N 25°48' W 080°15'0 0.0
2018-Jun-23 21:58N 25°48' W 080°15'0 0.0
2018-Jun-23 21:28N 25°48' W 080°15'0 0.0
2018-Jun-23 20:55N 25°48' W 080°15'0 0.0
2018-Jun-23 20:28N 25°48' W 080°15'0 0.0
2018-Jun-23 19:58N 25°48' W 080°15'0 0.0
2018-Jun-23 19:22N 25°48' W 080°15'0 0.0
2018-Jun-23 18:46N 25°48' W 080°15'0 0.0
2018-Jun-23 18:25N 25°48' W 080°15'0 0.0
2018-Jun-23 17:55N 25°48' W 080°15'0 0.0
2018-Jun-23 17:25N 25°48' W 080°15'0 0.0
2018-Jun-23 16:58N 25°48' W 080°15'0 0.0
2018-Jun-23 16:28N 25°48' W 080°15'0 0.0
2018-Jun-23 15:58N 25°48' W 080°15'0 0.0
2018-Jun-23 15:25N 25°48' W 080°15'0 0.0
2018-Jun-23 14:55N 25°48' W 080°15'0 0.0
2018-Jun-23 14:28N 25°48' W 080°15'0 0.0
2018-Jun-23 13:55N 25°48' W 080°15'0 0.0
2018-Jun-23 13:25N 25°48' W 080°15'0 0.0
2018-Jun-23 12:58N 25°48' W 080°15'0 0.0
2018-Jun-23 12:28N 25°48' W 080°15'0 0.0
2018-Jun-23 11:58N 25°48' W 080°15'0 0.0
2018-Jun-23 11:25N 25°48' W 080°15'0 0.0
2018-Jun-23 10:55N 25°48' W 080°15'0 0.0
2018-Jun-23 10:25N 25°48' W 080°15'0 0.0
2018-Jun-23 09:55N 25°48' W 080°15'0 0.0
2018-Jun-23 09:25N 25°48' W 080°15'0 0.0
2018-Jun-23 08:55N 25°48' W 080°15'0 0.0
2018-Jun-23 08:31N 25°48' W 080°15'0 0.0
2018-Jun-23 07:58N 25°48' W 080°15'0 0.0
2018-Jun-23 07:30N 25°48' W 080°15'0 0.0
2018-Jun-23 06:57N 25°48' W 080°15'0 0.0
2018-Jun-23 06:27N 25°48' W 080°15'0 0.0
2018-Jun-23 06:00N 25°48' W 080°15'0 0.0
2018-Jun-23 05:30N 25°48' W 080°15'0 0.0
2018-Jun-23 05:00N 25°48' W 080°15'0 0.0
2018-Jun-23 04:30N 25°48' W 080°15'0 0.0
2018-Jun-23 04:00N 25°48' W 080°15'0 0.0
2018-Jun-23 03:30N 25°48' W 080°15'0 0.0
2018-Jun-23 03:00N 25°48' W 080°15'0 0.0
2018-Jun-23 02:30N 25°48' W 080°15'0 0.0
2018-Jun-23 02:00N 25°48' W 080°15'0 0.0
2018-Jun-23 01:30N 25°48' W 080°15'0 0.1
2018-Jun-23 01:00N 25°48' W 080°15'0 0.0
2018-Jun-23 00:30N 25°48' W 080°15'0 0.0
2018-Jun-23 00:00N 25°48' W 080°15'0 0.0
2018-Jun-22 23:30N 25°48' W 080°15'0 0.0
2018-Jun-22 23:00N 25°48' W 080°15'0 0.0
2018-Jun-22 22:30N 25°48' W 080°15'0 0.0
2018-Jun-22 22:00N 25°48' W 080°15'0 0.0
2018-Jun-22 21:30N 25°48' W 080°15'0 0.0
2018-Jun-22 21:00N 25°48' W 080°15'0 0.0
2018-Jun-22 20:30N 25°48' W 080°15'0 0.0
2018-Jun-22 20:00N 25°48' W 080°15'0 0.0
2018-Jun-22 19:30N 25°48' W 080°15'1 1.2
2018-Jun-22 19:00N 25°47' W 080°14'1 2.6
2018-Jun-22 18:30N 25°47' W 080°13'1 2.8
2018-Jun-22 18:01N 25°46' W 080°12'1 2.6
2018-Jun-22 17:30N 25°46' W 080°10'4 8.7
2018-Jun-22 17:00N 25°46' W 080°06'1 1.8
2018-Jun-22 16:25N 25°47' W 080°05'0 0.1
2018-Jun-22 15:58N 25°47' W 080°05'0 0.2
2018-Jun-22 15:28N 25°47' W 080°05'0 0.1
2018-Jun-22 14:58N 25°47' W 080°05'0 0.1
2018-Jun-22 14:28N 25°47' W 080°05'1 2.4
2018-Jun-22 14:00N 25°47' W 080°04'612.5
2018-Jun-22 13:30N 25°41' W 080°02'714.3
2018-Jun-22 13:00N 25°34' W 079°59'714.3
2018-Jun-22 12:30N 25°28' W 079°56'  
2018-Jun-15 21:53N 25°27' W 079°55'3 7.6
2018-Jun-15 21:31N 25°30' W 079°56'4 7.6
2018-Jun-15 20:59N 25°33' W 079°58'4 7.9
2018-Jun-15 20:30N 25°36' W 080°00'4 8.1
2018-Jun-15 20:00N 25°40' W 080°02'4 8.5
2018-Jun-15 19:30N 25°44' W 080°04'5 9.0
2018-Jun-15 19:00N 25°46' W 080°09'2 4.8
2018-Jun-15 18:30N 25°46' W 080°11'1 2.7
2018-Jun-15 18:00N 25°47' W 080°13'1 2.9
2018-Jun-15 17:30N 25°47' W 080°14'1 1.4
2018-Jun-15 17:00N 25°48' W 080°15'0 0.1
2018-Jun-15 16:30N 25°48' W 080°15'0 0.0
2018-Jun-15 16:00N 25°48' W 080°15'0 0.0
2018-Jun-15 15:30N 25°48' W 080°15'0 0.0
2018-Jun-15 14:54N 25°48' W 080°15'0 0.0
2018-Jun-15 14:30N 25°48' W 080°15'0 0.0
2018-Jun-15 14:00N 25°48' W 080°15'0 0.0
2018-Jun-15 13:30N 25°48' W 080°15'0 0.0
2018-Jun-15 13:00N 25°48' W 080°15'0 0.0
2018-Jun-15 12:30N 25°48' W 080°15'0 0.1
2018-Jun-15 12:00N 25°48' W 080°15'0 0.0
2018-Jun-15 11:30N 25°48' W 080°15'0 0.0
2018-Jun-15 11:00N 25°48' W 080°15'0 0.0
2018-Jun-15 10:30N 25°48' W 080°15'0 0.0
2018-Jun-15 10:00N 25°48' W 080°15'0 0.0
2018-Jun-15 09:30N 25°48' W 080°15'0 0.0
2018-Jun-15 09:00N 25°48' W 080°15'0 0.0
2018-Jun-15 08:21N 25°48' W 080°15'0 0.0
2018-Jun-15 07:53N 25°48' W 080°15'0 0.0
2018-Jun-15 07:29N 25°48' W 080°15'0 0.0
2018-Jun-15 06:59N 25°48' W 080°15'0 0.0
2018-Jun-15 06:23N 25°48' W 080°15'0 0.0
2018-Jun-15 05:59N 25°48' W 080°15'0 0.0
2018-Jun-15 05:29N 25°48' W 080°15'0 0.0
2018-Jun-15 04:59N 25°48' W 080°15'0 0.0
2018-Jun-15 04:29N 25°48' W 080°15'0 0.0
2018-Jun-15 03:59N 25°48' W 080°15'0 0.0
2018-Jun-15 03:23N 25°48' W 080°15'0 0.0
2018-Jun-15 02:59N 25°48' W 080°15'0 0.0
2018-Jun-15 02:29N 25°48' W 080°15'0 0.0
2018-Jun-15 01:59N 25°48' W 080°15'0 0.0
2018-Jun-15 01:23N 25°48' W 080°15'0 0.0
2018-Jun-15 00:56N 25°48' W 080°15'0 0.0
2018-Jun-15 00:29N 25°48' W 080°15'0 0.0
2018-Jun-14 23:59N 25°48' W 080°15'0 0.0
2018-Jun-14 23:26N 25°48' W 080°15'0 0.0
2018-Jun-14 22:59N 25°48' W 080°15'0 0.0
2018-Jun-14 22:26N 25°48' W 080°15'0 0.0
2018-Jun-14 21:56N 25°48' W 080°15'0 0.0
2018-Jun-14 21:29N 25°48' W 080°15'0 0.0
2018-Jun-14 20:59N 25°48' W 080°15'0 0.0
2018-Jun-14 20:26N 25°48' W 080°15'0 0.0
2018-Jun-14 19:59N 25°48' W 080°15'0 0.0
2018-Jun-14 19:29N 25°48' W 080°15'0 0.0
2018-Jun-14 18:59N 25°48' W 080°15'0 0.0
2018-Jun-14 18:26N 25°48' W 080°15'0 0.0
2018-Jun-14 17:59N 25°48' W 080°15'0 0.0
2018-Jun-14 17:29N 25°48' W 080°15'0 0.0
2018-Jun-14 16:59N 25°48' W 080°15'0 0.0
2018-Jun-14 16:29N 25°48' W 080°15'0 0.0
2018-Jun-14 15:59N 25°48' W 080°15'0 0.0
2018-Jun-14 15:29N 25°48' W 080°15'1 1.4
2018-Jun-14 15:00N 25°47' W 080°14'1 2.3
2018-Jun-14 14:30N 25°47' W 080°13'1 2.4
2018-Jun-14 13:59N 25°46' W 080°12'1 2.4
2018-Jun-14 13:30N 25°46' W 080°11'3 6.7
2018-Jun-14 13:00N 25°45' W 080°07'4 8.8
2018-Jun-14 12:30N 25°43' W 080°03'713.7
2018-Jun-14 12:00N 25°36' W 080°02'713.7
2018-Jun-14 11:29N 25°29' W 079°59'  

Dump ship's entire track history